sensor_id;sensor_type;location;lat;lon;timestamp;temperature;humidity
9885;DHT22;4981;50.966;4.842;2023-08-06T00:01:54;14.90;1.00
9885;DHT22;4981;50.966;4.842;2023-08-06T00:04:21;14.90;1.00
9885;DHT22;4981;50.966;4.842;2023-08-06T00:06:48;14.80;1.00
9885;DHT22;4981;50.966;4.842;2023-08-06T00:09:17;14.90;1.00
9885;DHT22;4981;50.966;4.842;2023-08-06T00:11:43;15.00;1.00
9885;DHT22;4981;50.966;4.842;2023-08-06T00:14:12;14.90;1.00
9885;DHT22;4981;50.966;4.842;2023-08-06T00:16:42;14.90;1.00
9885;DHT22;4981;50.966;4.842;2023-08-06T00:19:09;14.90;1.00
9885;DHT22;4981;50.966;4.842;2023-08-06T00:21:36;14.90;1.00
9885;DHT22;4981;50.966;4.842;2023-08-06T00:24:03;15.00;1.00
9885;DHT22;4981;50.966;4.842;2023-08-06T00:26:31;15.00;1.00
9885;DHT22;4981;50.966;4.842;2023-08-06T00:28:58;15.10;1.00
9885;DHT22;4981;50.966;4.842;2023-08-06T00:31:25;15.00;1.00
9885;DHT22;4981;50.966;4.842;2023-08-06T00:33:52;14.90;1.00
9885;DHT22;4981;50.966;4.842;2023-08-06T00:36:19;14.70;1.00
9885;DHT22;4981;50.966;4.842;2023-08-06T00:38:46;15.50;1.00
9885;DHT22;4981;50.966;4.842;2023-08-06T00:41:14;15.10;1.00
9885;DHT22;4981;50.966;4.842;2023-08-06T00:43:42;15.20;1.00
9885;DHT22;4981;50.966;4.842;2023-08-06T00:46:09;14.20;1.00
9885;DHT22;4981;50.966;4.842;2023-08-06T00:48:37;15.40;1.00
9885;DHT22;4981;50.966;4.842;2023-08-06T00:51:04;14.90;1.00
9885;DHT22;4981;50.966;4.842;2023-08-06T00:53:31;15.00;1.00
9885;DHT22;4981;50.966;4.842;2023-08-06T00:55:58;14.70;1.00
9885;DHT22;4981;50.966;4.842;2023-08-06T00:58:25;14.90;1.00
9885;DHT22;4981;50.966;4.842;2023-08-06T01:00:54;15.20;1.00
9885;DHT22;4981;50.966;4.842;2023-08-06T01:03:21;14.90;1.00
9885;DHT22;4981;50.966;4.842;2023-08-06T01:05:48;14.80;1.00
9885;DHT22;4981;50.966;4.842;2023-08-06T01:08:24;14.80;1.00
9885;DHT22;4981;50.966;4.842;2023-08-06T01:11:17;14.90;1.00
9885;DHT22;4981;50.966;4.842;2023-08-06T01:13:47;14.80;1.00
9885;DHT22;4981;50.966;4.842;2023-08-06T01:16:18;15.00;1.00
9885;DHT22;4981;50.966;4.842;2023-08-06T01:18:47;14.30;1.00
9885;DHT22;4981;50.966;4.842;2023-08-06T01:21:16;15.00;1.00
9885;DHT22;4981;50.966;4.842;2023-08-06T01:23:43;15.20;1.00
9885;DHT22;4981;50.966;4.842;2023-08-06T01:26:14;15.00;1.00
9885;DHT22;4981;50.966;4.842;2023-08-06T01:28:48;14.70;1.00
9885;DHT22;4981;50.966;4.842;2023-08-06T01:31:22;15.00;1.00
9885;DHT22;4981;50.966;4.842;2023-08-06T01:33:49;15.00;1.00
9885;DHT22;4981;50.966;4.842;2023-08-06T01:36:19;15.30;1.00
9885;DHT22;4981;50.966;4.842;2023-08-06T01:38:47;15.00;1.00
9885;DHT22;4981;50.966;4.842;2023-08-06T01:41:14;14.20;1.00
9885;DHT22;4981;50.966;4.842;2023-08-06T01:43:41;15.30;1.00
9885;DHT22;4981;50.966;4.842;2023-08-06T01:46:08;15.40;1.00
9885;DHT22;4981;50.966;4.842;2023-08-06T01:48:35;15.00;1.00
9885;DHT22;4981;50.966;4.842;2023-08-06T01:51:04;14.90;1.00
9885;DHT22;4981;50.966;4.842;2023-08-06T01:53:33;15.00;1.00
9885;DHT22;4981;50.966;4.842;2023-08-06T01:56:00;15.00;1.00
9885;DHT22;4981;50.966;4.842;2023-08-06T01:58:27;14.90;1.00
9885;DHT22;4981;50.966;4.842;2023-08-06T02:00:54;15.00;1.00
9885;DHT22;4981;50.966;4.842;2023-08-06T02:03:21;15.70;1.00
9885;DHT22;4981;50.966;4.842;2023-08-06T02:05:48;15.00;1.00
9885;DHT22;4981;50.966;4.842;2023-08-06T02:08:15;15.10;1.00
9885;DHT22;4981;50.966;4.842;2023-08-06T02:10:44;15.60;1.00
9885;DHT22;4981;50.966;4.842;2023-08-06T02:13:11;15.30;1.00
9885;DHT22;4981;50.966;4.842;2023-08-06T02:15:42;15.10;1.00
9885;DHT22;4981;50.966;4.842;2023-08-06T02:18:09;15.50;1.00
9885;DHT22;4981;50.966;4.842;2023-08-06T02:20:36;15.60;1.00
9885;DHT22;4981;50.966;4.842;2023-08-06T02:23:03;15.80;1.00
9885;DHT22;4981;50.966;4.842;2023-08-06T02:25:33;14.60;1.00
9885;DHT22;4981;50.966;4.842;2023-08-06T02:28:01;15.60;1.00
9885;DHT22;4981;50.966;4.842;2023-08-06T02:30:28;15.30;1.00
9885;DHT22;4981;50.966;4.842;2023-08-06T02:32:56;15.40;1.00
9885;DHT22;4981;50.966;4.842;2023-08-06T02:35:23;14.90;1.00
9885;DHT22;4981;50.966;4.842;2023-08-06T02:37:50;15.00;1.00
9885;DHT22;4981;50.966;4.842;2023-08-06T02:40:17;14.80;1.00
9885;DHT22;4981;50.966;4.842;2023-08-06T02:42:44;15.20;1.00
9885;DHT22;4981;50.966;4.842;2023-08-06T02:45:12;15.10;1.00
9885;DHT22;4981;50.966;4.842;2023-08-06T02:47:39;14.60;1.00
9885;DHT22;4981;50.966;4.842;2023-08-06T02:50:07;14.90;1.00
9885;DHT22;4981;50.966;4.842;2023-08-06T02:52:34;15.00;1.00
9885;DHT22;4981;50.966;4.842;2023-08-06T02:55:01;15.40;1.00
9885;DHT22;4981;50.966;4.842;2023-08-06T02:57:28;14.80;1.00
9885;DHT22;4981;50.966;4.842;2023-08-06T02:59:54;14.90;1.00
9885;DHT22;4981;50.966;4.842;2023-08-06T03:02:23;15.10;1.00
9885;DHT22;4981;50.966;4.842;2023-08-06T03:04:50;14.90;1.00
9885;DHT22;4981;50.966;4.842;2023-08-06T03:07:17;14.90;1.00
9885;DHT22;4981;50.966;4.842;2023-08-06T03:09:44;14.70;1.00
9885;DHT22;4981;50.966;4.842;2023-08-06T03:12:11;14.90;1.00
9885;DHT22;4981;50.966;4.842;2023-08-06T03:14:38;14.90;1.00
9885;DHT22;4981;50.966;4.842;2023-08-06T03:17:05;14.90;1.00
9885;DHT22;4981;50.966;4.842;2023-08-06T03:19:33;15.00;1.00
9885;DHT22;4981;50.966;4.842;2023-08-06T03:22:03;14.90;1.00
9885;DHT22;4981;50.966;4.842;2023-08-06T03:24:30;14.80;1.00
9885;DHT22;4981;50.966;4.842;2023-08-06T03:26:57;14.80;1.00
9885;DHT22;4981;50.966;4.842;2023-08-06T03:29:24;14.70;1.00
9885;DHT22;4981;50.966;4.842;2023-08-06T03:31:52;14.90;1.00
9885;DHT22;4981;50.966;4.842;2023-08-06T03:34:19;15.20;1.00
9885;DHT22;4981;50.966;4.842;2023-08-06T03:36:47;15.20;1.00
9885;DHT22;4981;50.966;4.842;2023-08-06T03:39:14;15.00;1.00
9885;DHT22;4981;50.966;4.842;2023-08-06T03:41:41;14.30;1.00
9885;DHT22;4981;50.966;4.842;2023-08-06T03:44:08;14.90;1.00
9885;DHT22;4981;50.966;4.842;2023-08-06T03:46:35;14.70;1.00
9885;DHT22;4981;50.966;4.842;2023-08-06T03:49:02;14.80;1.00
9885;DHT22;4981;50.966;4.842;2023-08-06T03:51:29;14.90;1.00
9885;DHT22;4981;50.966;4.842;2023-08-06T03:53:57;15.00;1.00
9885;DHT22;4981;50.966;4.842;2023-08-06T03:56:24;14.90;1.00
9885;DHT22;4981;50.966;4.842;2023-08-06T03:58:51;15.00;1.00
9885;DHT22;4981;50.966;4.842;2023-08-06T04:01:18;15.00;1.00
9885;DHT22;4981;50.966;4.842;2023-08-06T04:03:45;14.80;1.00
9885;DHT22;4981;50.966;4.842;2023-08-06T04:06:12;14.70;1.00
9885;DHT22;4981;50.966;4.842;2023-08-06T04:08:39;15.40;1.00
9885;DHT22;4981;50.966;4.842;2023-08-06T04:11:07;14.80;1.00
9885;DHT22;4981;50.966;4.842;2023-08-06T04:13:34;15.10;1.00
9885;DHT22;4981;50.966;4.842;2023-08-06T04:16:01;14.60;1.00
9885;DHT22;4981;50.966;4.842;2023-08-06T04:18:28;14.60;1.00
9885;DHT22;4981;50.966;4.842;2023-08-06T04:20:55;15.00;1.00
9885;DHT22;4981;50.966;4.842;2023-08-06T04:23:23;14.80;1.00
9885;DHT22;4981;50.966;4.842;2023-08-06T04:25:50;14.40;1.00
9885;DHT22;4981;50.966;4.842;2023-08-06T04:28:19;15.00;1.00
9885;DHT22;4981;50.966;4.842;2023-08-06T04:30:46;15.20;1.00
9885;DHT22;4981;50.966;4.842;2023-08-06T04:33:13;14.80;1.00
9885;DHT22;4981;50.966;4.842;2023-08-06T04:35:40;14.80;1.00
9885;DHT22;4981;50.966;4.842;2023-08-06T04:38:07;15.10;1.00
9885;DHT22;4981;50.966;4.842;2023-08-06T04:40:34;14.80;1.00
9885;DHT22;4981;50.966;4.842;2023-08-06T04:43:01;14.30;1.00
9885;DHT22;4981;50.966;4.842;2023-08-06T04:45:30;14.90;1.00
9885;DHT22;4981;50.966;4.842;2023-08-06T04:47:57;15.40;1.00
9885;DHT22;4981;50.966;4.842;2023-08-06T04:50:24;14.80;1.00
9885;DHT22;4981;50.966;4.842;2023-08-06T04:52:50;14.70;1.00
9885;DHT22;4981;50.966;4.842;2023-08-06T04:55:17;14.80;1.00
9885;DHT22;4981;50.966;4.842;2023-08-06T04:57:44;14.80;1.00
9885;DHT22;4981;50.966;4.842;2023-08-06T05:00:12;14.70;1.00
9885;DHT22;4981;50.966;4.842;2023-08-06T05:02:41;14.60;1.00
9885;DHT22;4981;50.966;4.842;2023-08-06T05:05:08;14.50;1.00
9885;DHT22;4981;50.966;4.842;2023-08-06T05:07:35;13.70;1.00
9885;DHT22;4981;50.966;4.842;2023-08-06T05:10:02;14.80;1.00
9885;DHT22;4981;50.966;4.842;2023-08-06T05:12:30;14.90;1.00
9885;DHT22;4981;50.966;4.842;2023-08-06T05:14:57;14.60;1.00
9885;DHT22;4981;50.966;4.842;2023-08-06T05:17:23;14.10;1.00
9885;DHT22;4981;50.966;4.842;2023-08-06T05:19:52;13.70;1.00
9885;DHT22;4981;50.966;4.842;2023-08-06T05:22:19;14.00;1.00
9885;DHT22;4981;50.966;4.842;2023-08-06T05:24:46;13.90;1.00
9885;DHT22;4981;50.966;4.842;2023-08-06T05:27:13;12.70;1.00
9885;DHT22;4981;50.966;4.842;2023-08-06T05:29:40;14.00;1.00
9885;DHT22;4981;50.966;4.842;2023-08-06T05:32:07;13.20;1.00
9885;DHT22;4981;50.966;4.842;2023-08-06T05:34:34;13.80;1.00
9885;DHT22;4981;50.966;4.842;2023-08-06T05:37:03;13.80;1.00
9885;DHT22;4981;50.966;4.842;2023-08-06T05:39:30;13.30;1.00
9885;DHT22;4981;50.966;4.842;2023-08-06T05:41:57;14.00;1.00
9885;DHT22;4981;50.966;4.842;2023-08-06T05:44:24;13.90;1.00
9885;DHT22;4981;50.966;4.842;2023-08-06T05:46:51;13.80;1.00
9885;DHT22;4981;50.966;4.842;2023-08-06T05:49:19;13.80;1.00
9885;DHT22;4981;50.966;4.842;2023-08-06T05:51:46;13.50;1.00
9885;DHT22;4981;50.966;4.842;2023-08-06T05:54:14;13.70;1.00
9885;DHT22;4981;50.966;4.842;2023-08-06T05:56:41;13.70;1.00
9885;DHT22;4981;50.966;4.842;2023-08-06T05:59:08;13.80;1.00
9885;DHT22;4981;50.966;4.842;2023-08-06T06:01:35;13.70;1.00
9885;DHT22;4981;50.966;4.842;2023-08-06T06:04:02;13.70;1.00
9885;DHT22;4981;50.966;4.842;2023-08-06T06:06:29;13.60;1.00
9885;DHT22;4981;50.966;4.842;2023-08-06T06:08:56;13.80;1.00
9885;DHT22;4981;50.966;4.842;2023-08-06T06:11:24;13.70;1.00
9885;DHT22;4981;50.966;4.842;2023-08-06T06:13:51;13.60;1.00
9885;DHT22;4981;50.966;4.842;2023-08-06T06:16:18;13.60;1.00
9885;DHT22;4981;50.966;4.842;2023-08-06T06:18:45;13.30;1.00
9885;DHT22;4981;50.966;4.842;2023-08-06T06:21:12;13.90;1.00
9885;DHT22;4981;50.966;4.842;2023-08-06T06:23:39;13.30;1.00
9885;DHT22;4981;50.966;4.842;2023-08-06T06:26:06;13.50;1.00
9885;DHT22;4981;50.966;4.842;2023-08-06T06:28:35;13.50;1.00
9885;DHT22;4981;50.966;4.842;2023-08-06T06:31:02;13.10;1.00
9885;DHT22;4981;50.966;4.842;2023-08-06T06:33:29;13.40;1.00
9885;DHT22;4981;50.966;4.842;2023-08-06T06:35:56;13.10;1.00
9885;DHT22;4981;50.966;4.842;2023-08-06T06:38:23;13.80;1.00
9885;DHT22;4981;50.966;4.842;2023-08-06T06:40:56;13.50;1.00
9885;DHT22;4981;50.966;4.842;2023-08-06T06:43:24;13.50;1.00
9885;DHT22;4981;50.966;4.842;2023-08-06T06:45:56;13.70;1.00
9885;DHT22;4981;50.966;4.842;2023-08-06T06:48:24;13.60;1.00
9885;DHT22;4981;50.966;4.842;2023-08-06T06:50:51;13.60;1.00
9885;DHT22;4981;50.966;4.842;2023-08-06T06:53:18;13.50;1.00
9885;DHT22;4981;50.966;4.842;2023-08-06T06:55:45;13.50;1.00
9885;DHT22;4981;50.966;4.842;2023-08-06T06:58:14;14.00;1.00
9885;DHT22;4981;50.966;4.842;2023-08-06T07:00:41;13.60;1.00
9885;DHT22;4981;50.966;4.842;2023-08-06T07:03:10;13.70;1.00
9885;DHT22;4981;50.966;4.842;2023-08-06T07:05:37;13.80;1.00
9885;DHT22;4981;50.966;4.842;2023-08-06T07:08:04;14.00;1.00
9885;DHT22;4981;50.966;4.842;2023-08-06T07:10:31;13.70;1.00
9885;DHT22;4981;50.966;4.842;2023-08-06T07:12:58;13.80;1.00
9885;DHT22;4981;50.966;4.842;2023-08-06T07:15:25;14.10;1.00
9885;DHT22;4981;50.966;4.842;2023-08-06T07:17:52;13.60;1.00
9885;DHT22;4981;50.966;4.842;2023-08-06T07:20:20;13.80;1.00
9885;DHT22;4981;50.966;4.842;2023-08-06T07:22:47;13.80;1.00
9885;DHT22;4981;50.966;4.842;2023-08-06T07:25:16;13.90;1.00
9885;DHT22;4981;50.966;4.842;2023-08-06T07:27:43;13.70;1.00
9885;DHT22;4981;50.966;4.842;2023-08-06T07:30:10;13.70;1.00
9885;DHT22;4981;50.966;4.842;2023-08-06T07:32:37;13.70;1.00
9885;DHT22;4981;50.966;4.842;2023-08-06T07:35:05;13.90;1.00
9885;DHT22;4981;50.966;4.842;2023-08-06T07:37:35;13.50;1.00
9885;DHT22;4981;50.966;4.842;2023-08-06T07:40:02;13.70;1.00
9885;DHT22;4981;50.966;4.842;2023-08-06T07:42:30;13.90;1.00
9885;DHT22;4981;50.966;4.842;2023-08-06T07:44:59;13.30;1.00
9885;DHT22;4981;50.966;4.842;2023-08-06T07:47:26;13.40;1.00
9885;DHT22;4981;50.966;4.842;2023-08-06T07:49:53;13.60;1.00
9885;DHT22;4981;50.966;4.842;2023-08-06T07:52:20;13.60;1.00
9885;DHT22;4981;50.966;4.842;2023-08-06T07:54:48;13.60;1.00
9885;DHT22;4981;50.966;4.842;2023-08-06T07:57:15;13.00;1.00
9885;DHT22;4981;50.966;4.842;2023-08-06T07:59:42;13.40;1.00
9885;DHT22;4981;50.966;4.842;2023-08-06T08:02:09;14.10;1.00
9885;DHT22;4981;50.966;4.842;2023-08-06T11:34:14;13.90;1.00
9885;DHT22;4981;50.966;4.842;2023-08-06T11:36:42;14.10;1.00
9885;DHT22;4981;50.966;4.842;2023-08-06T11:39:09;14.00;1.00
9885;DHT22;4981;50.966;4.842;2023-08-06T11:41:36;13.90;1.00
9885;DHT22;4981;50.966;4.842;2023-08-06T11:44:05;13.90;1.00
9885;DHT22;4981;50.966;4.842;2023-08-06T11:46:49;13.70;1.00
9885;DHT22;4981;50.966;4.842;2023-08-06T11:49:21;13.70;1.00
9885;DHT22;4981;50.966;4.842;2023-08-06T11:52:10;13.50;1.00
9885;DHT22;4981;50.966;4.842;2023-08-06T11:57:05;13.60;1.00
9885;DHT22;4981;50.966;4.842;2023-08-06T11:59:34;13.70;1.00
9885;DHT22;4981;50.966;4.842;2023-08-06T12:02:05;13.70;1.00
9885;DHT22;4981;50.966;4.842;2023-08-06T12:05:03;13.60;1.00
9885;DHT22;4981;50.966;4.842;2023-08-06T12:07:36;13.80;1.00
9885;DHT22;4981;50.966;4.842;2023-08-06T12:10:04;13.70;1.00
9885;DHT22;4981;50.966;4.842;2023-08-06T12:12:33;13.70;1.00
9885;DHT22;4981;50.966;4.842;2023-08-06T12:15:02;13.50;1.00
9885;DHT22;4981;50.966;4.842;2023-08-06T12:17:30;13.70;1.00
9885;DHT22;4981;50.966;4.842;2023-08-06T12:19:58;13.80;1.00
9885;DHT22;4981;50.966;4.842;2023-08-06T12:24:52;13.90;1.00
9885;DHT22;4981;50.966;4.842;2023-08-06T12:27:21;13.80;1.00
9885;DHT22;4981;50.966;4.842;2023-08-06T12:29:48;14.20;1.00
9885;DHT22;4981;50.966;4.842;2023-08-06T12:32:16;13.70;1.00
9885;DHT22;4981;50.966;4.842;2023-08-06T12:34:43;13.60;1.00
9885;DHT22;4981;50.966;4.842;2023-08-06T12:37:11;13.70;1.00
9885;DHT22;4981;50.966;4.842;2023-08-06T12:39:38;13.60;1.00
9885;DHT22;4981;50.966;4.842;2023-08-06T12:42:08;13.60;1.00
9885;DHT22;4981;50.966;4.842;2023-08-06T12:47:03;13.70;1.00
9885;DHT22;4981;50.966;4.842;2023-08-06T12:49:30;13.70;1.00
9885;DHT22;4981;50.966;4.842;2023-08-06T12:51:58;13.40;1.00
9885;DHT22;4981;50.966;4.842;2023-08-06T12:57:02;13.70;1.00
9885;DHT22;4981;50.966;4.842;2023-08-06T12:59:29;13.50;1.00
9885;DHT22;4981;50.966;4.842;2023-08-06T13:01:56;13.60;1.00
9885;DHT22;4981;50.966;4.842;2023-08-06T13:04:23;13.50;1.00
9885;DHT22;4981;50.966;4.842;2023-08-06T13:06:50;13.50;1.00
9885;DHT22;4981;50.966;4.842;2023-08-06T13:09:17;13.50;1.00
9885;DHT22;4981;50.966;4.842;2023-08-06T13:11:45;13.60;1.00
9885;DHT22;4981;50.966;4.842;2023-08-06T13:14:15;13.80;1.00
9885;DHT22;4981;50.966;4.842;2023-08-06T13:16:43;13.60;1.00
9885;DHT22;4981;50.966;4.842;2023-08-06T13:19:11;13.50;1.00
9885;DHT22;4981;50.966;4.842;2023-08-06T13:21:59;13.00;1.00
9885;DHT22;4981;50.966;4.842;2023-08-06T13:24:27;14.60;1.00
9885;DHT22;4981;50.966;4.842;2023-08-06T13:26:58;13.40;1.00
9885;DHT22;4981;50.966;4.842;2023-08-06T13:29:25;13.40;1.00
9885;DHT22;4981;50.966;4.842;2023-08-06T13:31:53;13.50;1.00
9885;DHT22;4981;50.966;4.842;2023-08-06T13:34:20;13.40;1.00
9885;DHT22;4981;50.966;4.842;2023-08-06T13:36:47;13.40;1.00
9885;DHT22;4981;50.966;4.842;2023-08-06T13:39:16;13.40;1.00
9885;DHT22;4981;50.966;4.842;2023-08-06T13:41:44;13.30;1.00
9885;DHT22;4981;50.966;4.842;2023-08-06T13:44:13;13.40;1.00
9885;DHT22;4981;50.966;4.842;2023-08-06T13:46:41;13.40;1.00
9885;DHT22;4981;50.966;4.842;2023-08-06T13:49:09;13.40;1.00
9885;DHT22;4981;50.966;4.842;2023-08-06T13:51:36;13.50;1.00
9885;DHT22;4981;50.966;4.842;2023-08-06T13:54:04;13.00;1.00
9885;DHT22;4981;50.966;4.842;2023-08-06T13:56:32;13.30;1.00
9885;DHT22;4981;50.966;4.842;2023-08-06T16:26:47;13.40;1.00
9885;DHT22;4981;50.966;4.842;2023-08-06T16:29:14;13.50;5.30
9885;DHT22;4981;50.966;4.842;2023-08-06T16:31:41;13.40;14.40
9885;DHT22;4981;50.966;4.842;2023-08-06T16:34:08;13.30;12.00
9885;DHT22;4981;50.966;4.842;2023-08-06T16:36:35;13.30;7.20
9885;DHT22;4981;50.966;4.842;2023-08-06T16:39:02;13.40;7.80
9885;DHT22;4981;50.966;4.842;2023-08-06T16:41:29;13.50;8.70
9885;DHT22;4981;50.966;4.842;2023-08-06T16:43:58;14.00;8.80
9885;DHT22;4981;50.966;4.842;2023-08-06T16:46:25;13.70;1.70
9885;DHT22;4981;50.966;4.842;2023-08-06T16:48:51;13.80;1.00
9885;DHT22;4981;50.966;4.842;2023-08-06T16:51:18;14.50;1.00
9885;DHT22;4981;50.966;4.842;2023-08-06T16:53:45;14.30;13.30
9885;DHT22;4981;50.966;4.842;2023-08-06T16:56:13;14.20;22.70
9885;DHT22;4981;50.966;4.842;2023-08-06T16:58:40;14.10;99.90
9885;DHT22;4981;50.966;4.842;2023-08-06T17:01:08;14.20;99.90
9885;DHT22;4981;50.966;4.842;2023-08-06T17:03:35;14.30;99.90
9885;DHT22;4981;50.966;4.842;2023-08-06T17:06:04;14.30;99.90
9885;DHT22;4981;50.966;4.842;2023-08-06T17:08:31;14.30;24.30
9885;DHT22;4981;50.966;4.842;2023-08-06T17:11:00;14.20;11.40
9885;DHT22;4981;50.966;4.842;2023-08-06T17:13:27;15.20;3.70
9885;DHT22;4981;50.966;4.842;2023-08-06T17:15:54;14.40;1.90
9885;DHT22;4981;50.966;4.842;2023-08-06T17:18:22;14.40;1.00
9885;DHT22;4981;50.966;4.842;2023-08-06T17:20:50;14.20;1.00
9885;DHT22;4981;50.966;4.842;2023-08-06T17:23:17;15.20;1.00
9885;DHT22;4981;50.966;4.842;2023-08-06T22:18:34;12.10;1.00
9885;DHT22;4981;50.966;4.842;2023-08-06T22:21:01;12.20;1.00
9885;DHT22;4981;50.966;4.842;2023-08-06T22:23:28;12.20;1.00
9885;DHT22;4981;50.966;4.842;2023-08-06T22:25:56;12.10;1.00
9885;DHT22;4981;50.966;4.842;2023-08-06T22:28:23;12.20;1.00
9885;DHT22;4981;50.966;4.842;2023-08-06T22:30:54;12.20;1.00
9885;DHT22;4981;50.966;4.842;2023-08-06T22:33:21;12.10;1.00
9885;DHT22;4981;50.966;4.842;2023-08-06T22:35:51;12.00;1.00
9885;DHT22;4981;50.966;4.842;2023-08-06T22:38:19;12.10;1.00
9885;DHT22;4981;50.966;4.842;2023-08-06T22:40:46;12.10;1.00
9885;DHT22;4981;50.966;4.842;2023-08-06T22:43:13;12.10;1.00
9885;DHT22;4981;50.966;4.842;2023-08-06T22:45:39;12.20;1.00
9885;DHT22;4981;50.966;4.842;2023-08-06T22:48:06;12.20;1.00
9885;DHT22;4981;50.966;4.842;2023-08-06T22:50:33;12.30;1.00
9885;DHT22;4981;50.966;4.842;2023-08-06T22:53:02;12.30;1.00
9885;DHT22;4981;50.966;4.842;2023-08-06T22:55:29;12.30;1.00
9885;DHT22;4981;50.966;4.842;2023-08-06T22:57:56;12.40;1.00
9885;DHT22;4981;50.966;4.842;2023-08-06T23:00:23;12.30;1.00
9885;DHT22;4981;50.966;4.842;2023-08-06T23:02:50;12.40;1.00
9885;DHT22;4981;50.966;4.842;2023-08-06T23:05:17;12.40;1.00
9885;DHT22;4981;50.966;4.842;2023-08-06T23:07:45;12.50;1.00
9885;DHT22;4981;50.966;4.842;2023-08-06T23:10:13;12.50;1.00
9885;DHT22;4981;50.966;4.842;2023-08-06T23:12:40;12.50;1.00
9885;DHT22;4981;50.966;4.842;2023-08-06T23:15:08;12.30;1.00
9885;DHT22;4981;50.966;4.842;2023-08-06T23:17:35;12.40;1.00
9885;DHT22;4981;50.966;4.842;2023-08-06T23:20:02;12.40;1.00
9885;DHT22;4981;50.966;4.842;2023-08-06T23:22:30;12.40;1.00
9885;DHT22;4981;50.966;4.842;2023-08-06T23:24:56;12.40;1.00
9885;DHT22;4981;50.966;4.842;2023-08-06T23:27:25;12.30;1.00
9885;DHT22;4981;50.966;4.842;2023-08-06T23:29:52;12.20;1.00
9885;DHT22;4981;50.966;4.842;2023-08-06T23:32:19;12.20;1.00
9885;DHT22;4981;50.966;4.842;2023-08-06T23:34:46;12.20;1.00
9885;DHT22;4981;50.966;4.842;2023-08-06T23:37:13;12.20;1.00
9885;DHT22;4981;50.966;4.842;2023-08-06T23:39:40;12.10;1.00
9885;DHT22;4981;50.966;4.842;2023-08-06T23:42:07;12.90;1.00
9885;DHT22;4981;50.966;4.842;2023-08-06T23:44:36;12.10;1.00
9885;DHT22;4981;50.966;4.842;2023-08-06T23:47:03;12.10;1.00
9885;DHT22;4981;50.966;4.842;2023-08-06T23:49:30;12.40;1.00
9885;DHT22;4981;50.966;4.842;2023-08-06T23:51:57;12.30;1.00
9885;DHT22;4981;50.966;4.842;2023-08-06T23:54:24;12.20;1.00
9885;DHT22;4981;50.966;4.842;2023-08-06T23:56:51;12.20;1.00
9885;DHT22;4981;50.966;4.842;2023-08-06T23:59:18;12.20;1.00
